sensor_id;sensor_type;location;lat;lon;timestamp;P1;durP1;ratioP1;P2;durP2;ratioP2
45548;SDS011;31270;48.328;10.096;2022-07-06T00:01:26;8.98;;;3.97;;
45548;SDS011;31270;48.328;10.096;2022-07-06T00:03:52;3.95;;;3.22;;
45548;SDS011;31270;48.328;10.096;2022-07-06T00:06:18;5.72;;;3.60;;
45548;SDS011;31270;48.328;10.096;2022-07-06T00:08:43;3.72;;;3.42;;
45548;SDS011;31270;48.328;10.096;2022-07-06T00:11:09;3.95;;;2.97;;
45548;SDS011;31270;48.328;10.096;2022-07-06T00:13:35;4.13;;;3.72;;
45548;SDS011;31270;48.328;10.096;2022-07-06T00:16:01;3.75;;;3.45;;
45548;SDS011;31270;48.328;10.096;2022-07-06T00:18:27;3.70;;;3.38;;
45548;SDS011;31270;48.328;10.096;2022-07-06T00:20:53;3.45;;;3.15;;
45548;SDS011;31270;48.328;10.096;2022-07-06T00:23:19;3.45;;;3.15;;
45548;SDS011;31270;48.328;10.096;2022-07-06T00:25:44;3.33;;;3.10;;
45548;SDS011;31270;48.328;10.096;2022-07-06T00:28:10;3.50;;;3.20;;
45548;SDS011;31270;48.328;10.096;2022-07-06T00:30:35;3.60;;;3.30;;
45548;SDS011;31270;48.328;10.096;2022-07-06T00:33:01;5.63;;;3.60;;
45548;SDS011;31270;48.328;10.096;2022-07-06T00:35:27;3.50;;;3.20;;
45548;SDS011;31270;48.328;10.096;2022-07-06T00:37:53;4.72;;;3.28;;
45548;SDS011;31270;48.328;10.096;2022-07-06T00:40:18;3.97;;;3.58;;
45548;SDS011;31270;48.328;10.096;2022-07-06T00:42:44;3.90;;;3.17;;
45548;SDS011;31270;48.328;10.096;2022-07-06T00:45:11;6.80;;;3.63;;
45548;SDS011;31270;48.328;10.096;2022-07-06T00:47:39;5.55;;;3.70;;
45548;SDS011;31270;48.328;10.096;2022-07-06T00:50:06;4.88;;;3.78;;
45548;SDS011;31270;48.328;10.096;2022-07-06T00:52:43;4.50;;;3.63;;
45548;SDS011;31270;48.328;10.096;2022-07-06T00:55:17;5.63;;;3.85;;
45548;SDS011;31270;48.328;10.096;2022-07-06T00:57:45;4.78;;;4.10;;
45548;SDS011;31270;48.328;10.096;2022-07-06T01:00:12;4.93;;;4.00;;
45548;SDS011;31270;48.328;10.096;2022-07-06T01:02:39;4.43;;;4.03;;
45548;SDS011;31270;48.328;10.096;2022-07-06T01:05:06;4.63;;;4.10;;
45548;SDS011;31270;48.328;10.096;2022-07-06T01:07:34;5.10;;;4.40;;
45548;SDS011;31270;48.328;10.096;2022-07-06T01:10:01;4.88;;;4.38;;
45548;SDS011;31270;48.328;10.096;2022-07-06T01:12:29;6.00;;;4.60;;
45548;SDS011;31270;48.328;10.096;2022-07-06T01:14:55;6.90;;;4.63;;
45548;SDS011;31270;48.328;10.096;2022-07-06T01:17:21;4.80;;;4.13;;
45548;SDS011;31270;48.328;10.096;2022-07-06T01:19:48;6.25;;;4.90;;
45548;SDS011;31270;48.328;10.096;2022-07-06T01:22:14;5.53;;;4.97;;
45548;SDS011;31270;48.328;10.096;2022-07-06T01:28:02;4.80;;;4.30;;
45548;SDS011;31270;48.328;10.096;2022-07-06T01:30:28;6.47;;;4.53;;
45548;SDS011;31270;48.328;10.096;2022-07-06T01:32:53;6.40;;;4.70;;
45548;SDS011;31270;48.328;10.096;2022-07-06T01:35:19;6.63;;;4.70;;
45548;SDS011;31270;48.328;10.096;2022-07-06T01:37:45;6.57;;;4.72;;
45548;SDS011;31270;48.328;10.096;2022-07-06T01:40:11;4.95;;;4.53;;
45548;SDS011;31270;48.328;10.096;2022-07-06T01:42:37;6.50;;;4.80;;
45548;SDS011;31270;48.328;10.096;2022-07-06T01:45:03;6.60;;;4.95;;
45548;SDS011;31270;48.328;10.096;2022-07-06T01:47:31;5.22;;;4.72;;
45548;SDS011;31270;48.328;10.096;2022-07-06T01:49:58;5.22;;;4.57;;
45548;SDS011;31270;48.328;10.096;2022-07-06T01:52:24;4.75;;;4.25;;
45548;SDS011;31270;48.328;10.096;2022-07-06T01:54:50;5.03;;;4.55;;
45548;SDS011;31270;48.328;10.096;2022-07-06T01:57:16;5.88;;;4.80;;
45548;SDS011;31270;48.328;10.096;2022-07-06T01:59:41;4.90;;;4.50;;
45548;SDS011;31270;48.328;10.096;2022-07-06T02:02:07;7.32;;;4.50;;
45548;SDS011;31270;48.328;10.096;2022-07-06T02:04:33;5.22;;;4.72;;
45548;SDS011;31270;48.328;10.096;2022-07-06T02:06:58;6.90;;;5.18;;
45548;SDS011;31270;48.328;10.096;2022-07-06T02:09:24;5.53;;;5.03;;
45548;SDS011;31270;48.328;10.096;2022-07-06T02:11:49;5.72;;;4.88;;
45548;SDS011;31270;48.328;10.096;2022-07-06T02:14:15;6.03;;;5.05;;
45548;SDS011;31270;48.328;10.096;2022-07-06T02:16:41;5.35;;;4.90;;
45548;SDS011;31270;48.328;10.096;2022-07-06T02:19:06;5.93;;;4.95;;
45548;SDS011;31270;48.328;10.096;2022-07-06T02:21:32;4.95;;;4.55;;
45548;SDS011;31270;48.328;10.096;2022-07-06T02:23:57;6.38;;;5.20;;
45548;SDS011;31270;48.328;10.096;2022-07-06T02:26:23;5.60;;;5.10;;
45548;SDS011;31270;48.328;10.096;2022-07-06T02:28:48;5.85;;;5.20;;
45548;SDS011;31270;48.328;10.096;2022-07-06T02:31:14;5.93;;;5.32;;
45548;SDS011;31270;48.328;10.096;2022-07-06T02:33:40;6.78;;;5.13;;
45548;SDS011;31270;48.328;10.096;2022-07-06T02:36:06;6.38;;;5.55;;
45548;SDS011;31270;48.328;10.096;2022-07-06T02:38:32;7.13;;;6.05;;
45548;SDS011;31270;48.328;10.096;2022-07-06T02:40:57;6.60;;;5.68;;
45548;SDS011;31270;48.328;10.096;2022-07-06T02:43:23;7.18;;;5.85;;
45548;SDS011;31270;48.328;10.096;2022-07-06T02:45:49;8.18;;;6.00;;
45548;SDS011;31270;48.328;10.096;2022-07-06T02:48:14;6.15;;;5.40;;
45548;SDS011;31270;48.328;10.096;2022-07-06T02:50:40;6.50;;;5.90;;
45548;SDS011;31270;48.328;10.096;2022-07-06T02:53:06;5.80;;;5.30;;
45548;SDS011;31270;48.328;10.096;2022-07-06T02:55:31;6.40;;;5.80;;
45548;SDS011;31270;48.328;10.096;2022-07-06T02:57:57;6.43;;;5.82;;
45548;SDS011;31270;48.328;10.096;2022-07-06T03:00:22;6.63;;;6.13;;
45548;SDS011;31270;48.328;10.096;2022-07-06T03:02:48;6.93;;;6.22;;
45548;SDS011;31270;48.328;10.096;2022-07-06T03:05:14;6.43;;;5.72;;
45548;SDS011;31270;48.328;10.096;2022-07-06T03:07:40;6.32;;;5.72;;
45548;SDS011;31270;48.328;10.096;2022-07-06T03:10:05;6.32;;;5.65;;
45548;SDS011;31270;48.328;10.096;2022-07-06T03:12:31;6.63;;;5.80;;
45548;SDS011;31270;48.328;10.096;2022-07-06T03:14:57;6.35;;;5.78;;
45548;SDS011;31270;48.328;10.096;2022-07-06T03:17:23;6.85;;;6.25;;
45548;SDS011;31270;48.328;10.096;2022-07-06T03:19:49;7.10;;;6.38;;
45548;SDS011;31270;48.328;10.096;2022-07-06T03:22:15;8.82;;;5.90;;
45548;SDS011;31270;48.328;10.096;2022-07-06T03:24:40;7.63;;;6.28;;
45548;SDS011;31270;48.328;10.096;2022-07-06T03:27:06;7.50;;;6.65;;
45548;SDS011;31270;48.328;10.096;2022-07-06T03:29:32;7.82;;;6.53;;
45548;SDS011;31270;48.328;10.096;2022-07-06T03:31:57;8.27;;;6.28;;
45548;SDS011;31270;48.328;10.096;2022-07-06T03:34:23;6.90;;;6.22;;
45548;SDS011;31270;48.328;10.096;2022-07-06T03:36:48;6.90;;;6.30;;
45548;SDS011;31270;48.328;10.096;2022-07-06T03:39:14;7.32;;;6.45;;
45548;SDS011;31270;48.328;10.096;2022-07-06T03:41:40;6.43;;;5.93;;
45548;SDS011;31270;48.328;10.096;2022-07-06T03:44:05;8.65;;;6.43;;
45548;SDS011;31270;48.328;10.096;2022-07-06T03:46:31;6.82;;;6.22;;
45548;SDS011;31270;48.328;10.096;2022-07-06T03:48:56;7.22;;;6.53;;
45548;SDS011;31270;48.328;10.096;2022-07-06T03:51:22;8.40;;;6.47;;
45548;SDS011;31270;48.328;10.096;2022-07-06T03:53:48;7.15;;;6.45;;
45548;SDS011;31270;48.328;10.096;2022-07-06T03:56:14;7.03;;;6.43;;
45548;SDS011;31270;48.328;10.096;2022-07-06T03:58:55;8.05;;;6.90;;
45548;SDS011;31270;48.328;10.096;2022-07-06T04:01:22;7.65;;;6.85;;
45548;SDS011;31270;48.328;10.096;2022-07-06T04:03:47;6.70;;;6.05;;
45548;SDS011;31270;48.328;10.096;2022-07-06T04:06:13;6.60;;;6.00;;
45548;SDS011;31270;48.328;10.096;2022-07-06T04:08:39;7.32;;;6.65;;
45548;SDS011;31270;48.328;10.096;2022-07-06T04:11:04;9.52;;;5.82;;
45548;SDS011;31270;48.328;10.096;2022-07-06T04:13:30;6.18;;;5.68;;
45548;SDS011;31270;48.328;10.096;2022-07-06T04:15:56;7.65;;;6.90;;
45548;SDS011;31270;48.328;10.096;2022-07-06T04:18:22;7.82;;;7.05;;
45548;SDS011;31270;48.328;10.096;2022-07-06T04:20:48;11.38;;;7.22;;
45548;SDS011;31270;48.328;10.096;2022-07-06T04:23:13;7.13;;;6.53;;
45548;SDS011;31270;48.328;10.096;2022-07-06T04:25:39;7.20;;;6.50;;
45548;SDS011;31270;48.328;10.096;2022-07-06T04:28:05;7.68;;;6.85;;
45548;SDS011;31270;48.328;10.096;2022-07-06T04:30:31;7.60;;;6.80;;
45548;SDS011;31270;48.328;10.096;2022-07-06T04:32:57;7.68;;;6.90;;
45548;SDS011;31270;48.328;10.096;2022-07-06T04:35:22;7.28;;;6.68;;
45548;SDS011;31270;48.328;10.096;2022-07-06T04:37:51;8.52;;;6.20;;
45548;SDS011;31270;48.328;10.096;2022-07-06T04:40:16;7.35;;;6.65;;
45548;SDS011;31270;48.328;10.096;2022-07-06T04:42:42;9.65;;;6.53;;
45548;SDS011;31270;48.328;10.096;2022-07-06T04:45:08;9.00;;;6.88;;
45548;SDS011;31270;48.328;10.096;2022-07-06T04:47:34;6.90;;;6.18;;
45548;SDS011;31270;48.328;10.096;2022-07-06T04:50:00;6.55;;;5.95;;
45548;SDS011;31270;48.328;10.096;2022-07-06T04:52:26;9.07;;;6.10;;
45548;SDS011;31270;48.328;10.096;2022-07-06T04:54:53;7.32;;;6.63;;
45548;SDS011;31270;48.328;10.096;2022-07-06T04:57:19;9.25;;;5.97;;
45548;SDS011;31270;48.328;10.096;2022-07-06T04:59:45;7.82;;;6.10;;
45548;SDS011;31270;48.328;10.096;2022-07-06T05:02:10;7.32;;;5.88;;
45548;SDS011;31270;48.328;10.096;2022-07-06T05:04:36;7.00;;;6.07;;
45548;SDS011;31270;48.328;10.096;2022-07-06T05:07:02;6.38;;;5.78;;
45548;SDS011;31270;48.328;10.096;2022-07-06T05:09:28;11.32;;;6.78;;
45548;SDS011;31270;48.328;10.096;2022-07-06T05:11:53;6.50;;;5.97;;
45548;SDS011;31270;48.328;10.096;2022-07-06T05:14:19;6.53;;;5.47;;
45548;SDS011;31270;48.328;10.096;2022-07-06T05:16:44;8.00;;;5.88;;
45548;SDS011;31270;48.328;10.096;2022-07-06T05:19:10;6.45;;;5.88;;
45548;SDS011;31270;48.328;10.096;2022-07-06T05:21:35;6.38;;;5.78;;
45548;SDS011;31270;48.328;10.096;2022-07-06T05:24:01;8.02;;;5.93;;
45548;SDS011;31270;48.328;10.096;2022-07-06T05:26:27;7.32;;;6.05;;
45548;SDS011;31270;48.328;10.096;2022-07-06T05:28:52;6.47;;;5.88;;
45548;SDS011;31270;48.328;10.096;2022-07-06T05:31:18;7.63;;;5.88;;
45548;SDS011;31270;48.328;10.096;2022-07-06T05:33:45;10.75;;;5.90;;
45548;SDS011;31270;48.328;10.096;2022-07-06T05:36:10;9.35;;;6.15;;
45548;SDS011;31270;48.328;10.096;2022-07-06T05:38:36;5.93;;;5.40;;
45548;SDS011;31270;48.328;10.096;2022-07-06T05:41:01;6.13;;;5.53;;
45548;SDS011;31270;48.328;10.096;2022-07-06T05:43:27;5.80;;;5.20;;
45548;SDS011;31270;48.328;10.096;2022-07-06T05:45:53;6.90;;;5.30;;
45548;SDS011;31270;48.328;10.096;2022-07-06T05:48:18;6.75;;;5.43;;
45548;SDS011;31270;48.328;10.096;2022-07-06T05:51:02;10.25;;;5.57;;
45548;SDS011;31270;48.328;10.096;2022-07-06T05:53:28;6.68;;;4.72;;
45548;SDS011;31270;48.328;10.096;2022-07-06T05:55:53;6.03;;;5.05;;
45548;SDS011;31270;48.328;10.096;2022-07-06T05:58:19;6.68;;;4.90;;
45548;SDS011;31270;48.328;10.096;2022-07-06T06:00:45;6.63;;;5.55;;
45548;SDS011;31270;48.328;10.096;2022-07-06T06:03:10;7.13;;;5.97;;
45548;SDS011;31270;48.328;10.096;2022-07-06T06:05:36;5.60;;;5.03;;
45548;SDS011;31270;48.328;10.096;2022-07-06T06:08:02;5.47;;;4.93;;
45548;SDS011;31270;48.328;10.096;2022-07-06T06:10:28;5.50;;;5.00;;
45548;SDS011;31270;48.328;10.096;2022-07-06T06:12:53;6.95;;;5.10;;
45548;SDS011;31270;48.328;10.096;2022-07-06T06:15:19;4.75;;;4.28;;
45548;SDS011;31270;48.328;10.096;2022-07-06T06:17:45;7.43;;;4.30;;
45548;SDS011;31270;48.328;10.096;2022-07-06T06:20:12;6.55;;;4.57;;
45548;SDS011;31270;48.328;10.096;2022-07-06T06:22:46;5.47;;;4.50;;
45548;SDS011;31270;48.328;10.096;2022-07-06T06:25:29;6.10;;;4.47;;
45548;SDS011;31270;48.328;10.096;2022-07-06T06:27:56;4.93;;;4.47;;
45548;SDS011;31270;48.328;10.096;2022-07-06T06:30:21;7.22;;;4.57;;
45548;SDS011;31270;48.328;10.096;2022-07-06T06:32:47;5.70;;;4.40;;
45548;SDS011;31270;48.328;10.096;2022-07-06T06:35:13;4.70;;;4.30;;
45548;SDS011;31270;48.328;10.096;2022-07-06T06:37:38;5.82;;;4.38;;
45548;SDS011;31270;48.328;10.096;2022-07-06T06:40:04;6.40;;;3.83;;
45548;SDS011;31270;48.328;10.096;2022-07-06T06:42:32;5.72;;;4.03;;
45548;SDS011;31270;48.328;10.096;2022-07-06T06:45:00;13.38;;;4.20;;
45548;SDS011;31270;48.328;10.096;2022-07-06T06:47:26;4.47;;;3.90;;
45548;SDS011;31270;48.328;10.096;2022-07-06T06:49:51;3.88;;;3.47;;
45548;SDS011;31270;48.328;10.096;2022-07-06T06:52:17;4.05;;;3.65;;
45548;SDS011;31270;48.328;10.096;2022-07-06T06:54:42;4.10;;;3.70;;
45548;SDS011;31270;48.328;10.096;2022-07-06T06:57:08;4.72;;;3.30;;
45548;SDS011;31270;48.328;10.096;2022-07-06T06:59:34;3.85;;;3.50;;
45548;SDS011;31270;48.328;10.096;2022-07-06T07:01:59;3.78;;;3.47;;
45548;SDS011;31270;48.328;10.096;2022-07-06T07:04:25;3.63;;;3.33;;
45548;SDS011;31270;48.328;10.096;2022-07-06T07:06:51;28.58;;;4.57;;
45548;SDS011;31270;48.328;10.096;2022-07-06T07:09:16;5.80;;;3.42;;
45548;SDS011;31270;48.328;10.096;2022-07-06T07:11:42;7.05;;;3.30;;
45548;SDS011;31270;48.328;10.096;2022-07-06T07:14:07;3.30;;;3.00;;
45548;SDS011;31270;48.328;10.096;2022-07-06T07:16:33;4.40;;;3.50;;
45548;SDS011;31270;48.328;10.096;2022-07-06T07:18:59;12.05;;;3.60;;
45548;SDS011;31270;48.328;10.096;2022-07-06T07:21:24;5.22;;;3.38;;
45548;SDS011;31270;48.328;10.096;2022-07-06T07:23:50;4.63;;;3.38;;
45548;SDS011;31270;48.328;10.096;2022-07-06T07:26:16;4.68;;;3.63;;
45548;SDS011;31270;48.328;10.096;2022-07-06T07:28:43;3.95;;;3.00;;
45548;SDS011;31270;48.328;10.096;2022-07-06T07:31:08;3.78;;;3.42;;
45548;SDS011;31270;48.328;10.096;2022-07-06T07:33:34;5.35;;;3.63;;
45548;SDS011;31270;48.328;10.096;2022-07-06T07:35:59;6.20;;;3.53;;
45548;SDS011;31270;48.328;10.096;2022-07-06T07:38:25;4.65;;;3.78;;
45548;SDS011;31270;48.328;10.096;2022-07-06T07:40:54;4.30;;;3.65;;
45548;SDS011;31270;48.328;10.096;2022-07-06T07:43:20;4.60;;;4.13;;
45548;SDS011;31270;48.328;10.096;2022-07-06T07:45:45;5.47;;;3.83;;
45548;SDS011;31270;48.328;10.096;2022-07-06T07:48:12;4.07;;;3.40;;
45548;SDS011;31270;48.328;10.096;2022-07-06T07:50:37;3.78;;;3.38;;
45548;SDS011;31270;48.328;10.096;2022-07-06T07:53:03;5.07;;;3.72;;
45548;SDS011;31270;48.328;10.096;2022-07-06T07:55:29;5.05;;;3.45;;
45548;SDS011;31270;48.328;10.096;2022-07-06T07:57:54;6.53;;;3.45;;
45548;SDS011;31270;48.328;10.096;2022-07-06T08:00:20;4.93;;;3.78;;
45548;SDS011;31270;48.328;10.096;2022-07-06T08:02:46;5.68;;;3.78;;
45548;SDS011;31270;48.328;10.096;2022-07-06T08:05:12;6.53;;;3.72;;
45548;SDS011;31270;48.328;10.096;2022-07-06T08:07:40;3.97;;;3.67;;
45548;SDS011;31270;48.328;10.096;2022-07-06T08:10:06;5.15;;;3.60;;
45548;SDS011;31270;48.328;10.096;2022-07-06T08:12:32;6.45;;;3.97;;
45548;SDS011;31270;48.328;10.096;2022-07-06T08:14:58;5.28;;;3.40;;
45548;SDS011;31270;48.328;10.096;2022-07-06T08:17:24;7.00;;;3.97;;
45548;SDS011;31270;48.328;10.096;2022-07-06T08:19:49;7.13;;;3.80;;
45548;SDS011;31270;48.328;10.096;2022-07-06T08:22:15;3.95;;;3.63;;
45548;SDS011;31270;48.328;10.096;2022-07-06T08:24:41;3.47;;;3.17;;
45548;SDS011;31270;48.328;10.096;2022-07-06T08:27:07;4.20;;;3.88;;
45548;SDS011;31270;48.328;10.096;2022-07-06T08:29:32;6.30;;;3.80;;
45548;SDS011;31270;48.328;10.096;2022-07-06T08:31:58;4.47;;;4.05;;
45548;SDS011;31270;48.328;10.096;2022-07-06T08:34:24;4.60;;;4.00;;
45548;SDS011;31270;48.328;10.096;2022-07-06T08:36:49;5.53;;;3.90;;
45548;SDS011;31270;48.328;10.096;2022-07-06T08:39:15;4.40;;;3.42;;
45548;SDS011;31270;48.328;10.096;2022-07-06T08:41:41;5.60;;;3.58;;
45548;SDS011;31270;48.328;10.096;2022-07-06T08:44:08;4.15;;;3.65;;
45548;SDS011;31270;48.328;10.096;2022-07-06T08:46:35;6.65;;;3.90;;
45548;SDS011;31270;48.328;10.096;2022-07-06T08:49:03;8.02;;;4.00;;
45548;SDS011;31270;48.328;10.096;2022-07-06T08:51:31;7.88;;;3.63;;
45548;SDS011;31270;48.328;10.096;2022-07-06T08:53:58;7.28;;;3.97;;
45548;SDS011;31270;48.328;10.096;2022-07-06T08:56:24;6.93;;;3.22;;
45548;SDS011;31270;48.328;10.096;2022-07-06T08:58:50;4.82;;;3.20;;
45548;SDS011;31270;48.328;10.096;2022-07-06T09:01:17;3.60;;;3.15;;
45548;SDS011;31270;48.328;10.096;2022-07-06T09:03:43;3.70;;;3.40;;
45548;SDS011;31270;48.328;10.096;2022-07-06T09:06:12;3.47;;;3.15;;
45548;SDS011;31270;48.328;10.096;2022-07-06T09:08:42;4.13;;;3.42;;
45548;SDS011;31270;48.328;10.096;2022-07-06T09:11:09;7.63;;;3.42;;
45548;SDS011;31270;48.328;10.096;2022-07-06T09:13:35;3.78;;;3.38;;
45548;SDS011;31270;48.328;10.096;2022-07-06T09:16:10;3.38;;;3.08;;
45548;SDS011;31270;48.328;10.096;2022-07-06T09:18:38;4.75;;;3.50;;
45548;SDS011;31270;48.328;10.096;2022-07-06T09:21:07;5.82;;;3.20;;
45548;SDS011;31270;48.328;10.096;2022-07-06T09:23:33;5.18;;;3.80;;
45548;SDS011;31270;48.328;10.096;2022-07-06T09:26:04;3.45;;;3.13;;
45548;SDS011;31270;48.328;10.096;2022-07-06T09:28:44;3.50;;;3.20;;
45548;SDS011;31270;48.328;10.096;2022-07-06T09:31:10;4.13;;;3.20;;
45548;SDS011;31270;48.328;10.096;2022-07-06T09:33:36;7.32;;;3.55;;
45548;SDS011;31270;48.328;10.096;2022-07-06T09:36:03;3.50;;;3.20;;
45548;SDS011;31270;48.328;10.096;2022-07-06T09:38:30;3.40;;;3.10;;
45548;SDS011;31270;48.328;10.096;2022-07-06T09:40:56;3.40;;;2.92;;
45548;SDS011;31270;48.328;10.096;2022-07-06T09:43:22;6.22;;;3.75;;
45548;SDS011;31270;48.328;10.096;2022-07-06T09:48:17;5.00;;;2.92;;
45548;SDS011;31270;48.328;10.096;2022-07-06T09:50:53;5.57;;;3.10;;
45548;SDS011;31270;48.328;10.096;2022-07-06T09:53:21;3.88;;;2.90;;
45548;SDS011;31270;48.328;10.096;2022-07-06T09:55:53;3.55;;;3.10;;
45548;SDS011;31270;48.328;10.096;2022-07-06T09:58:20;2.92;;;2.72;;
45548;SDS011;31270;48.328;10.096;2022-07-06T10:00:47;3.72;;;3.00;;
45548;SDS011;31270;48.328;10.096;2022-07-06T10:03:13;4.13;;;2.83;;
45548;SDS011;31270;48.328;10.096;2022-07-06T10:05:41;3.88;;;3.22;;
45548;SDS011;31270;48.328;10.096;2022-07-06T10:08:08;4.80;;;3.42;;
45548;SDS011;31270;48.328;10.096;2022-07-06T10:10:35;4.00;;;2.70;;
45548;SDS011;31270;48.328;10.096;2022-07-06T10:13:02;7.65;;;2.90;;
45548;SDS011;31270;48.328;10.096;2022-07-06T10:15:28;7.90;;;2.92;;
45548;SDS011;31270;48.328;10.096;2022-07-06T10:18:01;4.13;;;3.08;;
45548;SDS011;31270;48.328;10.096;2022-07-06T10:20:29;3.35;;;2.60;;
45548;SDS011;31270;48.328;10.096;2022-07-06T10:22:57;4.30;;;3.22;;
45548;SDS011;31270;48.328;10.096;2022-07-06T10:25:25;7.85;;;2.97;;
45548;SDS011;31270;48.328;10.096;2022-07-06T10:27:51;4.57;;;2.80;;
45548;SDS011;31270;48.328;10.096;2022-07-06T10:30:17;6.35;;;3.05;;
45548;SDS011;31270;48.328;10.096;2022-07-06T10:32:44;3.85;;;3.38;;
45548;SDS011;31270;48.328;10.096;2022-07-06T10:35:13;6.95;;;2.80;;
45548;SDS011;31270;48.328;10.096;2022-07-06T10:37:39;3.28;;;3.00;;
45548;SDS011;31270;48.328;10.096;2022-07-06T10:40:05;3.20;;;2.60;;
45548;SDS011;31270;48.328;10.096;2022-07-06T10:42:55;5.88;;;2.90;;
45548;SDS011;31270;48.328;10.096;2022-07-06T10:50:50;3.10;;;2.85;;
45548;SDS011;31270;48.328;10.096;2022-07-06T10:55:50;6.22;;;3.30;;
45548;SDS011;31270;48.328;10.096;2022-07-06T10:59:02;3.15;;;2.85;;
45548;SDS011;31270;48.328;10.096;2022-07-06T11:01:09;3.72;;;3.35;;
45548;SDS011;31270;48.328;10.096;2022-07-06T11:03:40;8.45;;;3.10;;
45548;SDS011;31270;48.328;10.096;2022-07-06T11:06:10;3.65;;;2.65;;
45548;SDS011;31270;48.328;10.096;2022-07-06T11:11:21;4.07;;;3.17;;
45548;SDS011;31270;48.328;10.096;2022-07-06T11:16:34;3.22;;;2.92;;
45548;SDS011;31270;48.328;10.096;2022-07-06T11:19:04;4.53;;;2.65;;
45548;SDS011;31270;48.328;10.096;2022-07-06T11:26:56;3.00;;;2.58;;
45548;SDS011;31270;48.328;10.096;2022-07-06T11:29:23;3.60;;;2.58;;
45548;SDS011;31270;48.328;10.096;2022-07-06T11:31:51;2.65;;;2.45;;
45548;SDS011;31270;48.328;10.096;2022-07-06T11:34:23;3.28;;;2.70;;
45548;SDS011;31270;48.328;10.096;2022-07-06T11:36:54;3.45;;;2.63;;
45548;SDS011;31270;48.328;10.096;2022-07-06T11:39:21;4.43;;;2.60;;
45548;SDS011;31270;48.328;10.096;2022-07-06T11:41:46;3.38;;;2.72;;
45548;SDS011;31270;48.328;10.096;2022-07-06T11:44:12;3.75;;;2.78;;
45548;SDS011;31270;48.328;10.096;2022-07-06T11:46:37;3.35;;;2.65;;
45548;SDS011;31270;48.328;10.096;2022-07-06T11:49:05;3.40;;;2.88;;
45548;SDS011;31270;48.328;10.096;2022-07-06T11:51:33;9.38;;;2.90;;
45548;SDS011;31270;48.328;10.096;2022-07-06T11:54:12;5.88;;;2.75;;
45548;SDS011;31270;48.328;10.096;2022-07-06T11:56:38;2.72;;;2.47;;
45548;SDS011;31270;48.328;10.096;2022-07-06T11:59:11;3.10;;;2.65;;
45548;SDS011;31270;48.328;10.096;2022-07-06T12:01:37;2.80;;;2.60;;
45548;SDS011;31270;48.328;10.096;2022-07-06T12:04:06;3.50;;;2.65;;
45548;SDS011;31270;48.328;10.096;2022-07-06T12:06:32;2.85;;;2.50;;
45548;SDS011;31270;48.328;10.096;2022-07-06T12:08:59;2.58;;;2.38;;
45548;SDS011;31270;48.328;10.096;2022-07-06T12:11:33;5.65;;;2.90;;
45548;SDS011;31270;48.328;10.096;2022-07-06T12:14:01;4.70;;;2.50;;
45548;SDS011;31270;48.328;10.096;2022-07-06T12:16:38;3.80;;;2.30;;
45548;SDS011;31270;48.328;10.096;2022-07-06T12:19:04;4.10;;;2.22;;
45548;SDS011;31270;48.328;10.096;2022-07-06T12:21:32;3.67;;;2.80;;
45548;SDS011;31270;48.328;10.096;2022-07-06T12:23:59;3.20;;;2.50;;
45548;SDS011;31270;48.328;10.096;2022-07-06T12:26:26;2.05;;;1.90;;
45548;SDS011;31270;48.328;10.096;2022-07-06T12:31:52;2.45;;;2.25;;
45548;SDS011;31270;48.328;10.096;2022-07-06T12:36:50;4.40;;;2.45;;
45548;SDS011;31270;48.328;10.096;2022-07-06T12:39:21;5.90;;;2.50;;
45548;SDS011;31270;48.328;10.096;2022-07-06T12:41:52;2.47;;;2.28;;
45548;SDS011;31270;48.328;10.096;2022-07-06T12:44:28;2.35;;;2.15;;
45548;SDS011;31270;48.328;10.096;2022-07-06T12:47:04;4.10;;;2.17;;
45548;SDS011;31270;48.328;10.096;2022-07-06T12:49:31;6.90;;;2.75;;
45548;SDS011;31270;48.328;10.096;2022-07-06T12:54:29;7.68;;;2.50;;
45548;SDS011;31270;48.328;10.096;2022-07-06T12:57:21;3.90;;;2.22;;
45548;SDS011;31270;48.328;10.096;2022-07-06T13:04:58;13.75;;;2.50;;
45548;SDS011;31270;48.328;10.096;2022-07-06T13:07:33;2.97;;;2.67;;
45548;SDS011;31270;48.328;10.096;2022-07-06T13:10:00;3.17;;;2.50;;
45548;SDS011;31270;48.328;10.096;2022-07-06T13:12:28;4.40;;;2.55;;
45548;SDS011;31270;48.328;10.096;2022-07-06T13:14:54;2.53;;;2.33;;
45548;SDS011;31270;48.328;10.096;2022-07-06T13:17:20;4.05;;;2.33;;
45548;SDS011;31270;48.328;10.096;2022-07-06T13:19:45;5.95;;;2.42;;
45548;SDS011;31270;48.328;10.096;2022-07-06T13:22:11;4.13;;;2.63;;
45548;SDS011;31270;48.328;10.096;2022-07-06T13:24:37;2.90;;;2.30;;
45548;SDS011;31270;48.328;10.096;2022-07-06T13:27:02;7.30;;;2.60;;
45548;SDS011;31270;48.328;10.096;2022-07-06T13:29:28;5.85;;;2.40;;
45548;SDS011;31270;48.328;10.096;2022-07-06T13:31:54;2.70;;;2.50;;
45548;SDS011;31270;48.328;10.096;2022-07-06T13:34:19;3.85;;;2.30;;
45548;SDS011;31270;48.328;10.096;2022-07-06T13:36:45;2.80;;;2.60;;
45548;SDS011;31270;48.328;10.096;2022-07-06T13:39:11;5.30;;;2.60;;
45548;SDS011;31270;48.328;10.096;2022-07-06T13:41:36;4.22;;;2.67;;
45548;SDS011;31270;48.328;10.096;2022-07-06T13:44:02;3.78;;;2.40;;
45548;SDS011;31270;48.328;10.096;2022-07-06T13:46:29;3.53;;;2.40;;
45548;SDS011;31270;48.328;10.096;2022-07-06T13:48:56;4.85;;;2.40;;
45548;SDS011;31270;48.328;10.096;2022-07-06T13:51:23;2.95;;;2.70;;
45548;SDS011;31270;48.328;10.096;2022-07-06T13:53:50;2.85;;;2.65;;
45548;SDS011;31270;48.328;10.096;2022-07-06T13:56:16;5.82;;;2.58;;
45548;SDS011;31270;48.328;10.096;2022-07-06T13:58:42;4.85;;;2.78;;
45548;SDS011;31270;48.328;10.096;2022-07-06T14:01:08;3.70;;;2.72;;
45548;SDS011;31270;48.328;10.096;2022-07-06T14:03:34;3.08;;;2.40;;
45548;SDS011;31270;48.328;10.096;2022-07-06T14:06:02;2.75;;;2.47;;
45548;SDS011;31270;48.328;10.096;2022-07-06T14:08:29;2.65;;;2.45;;
45548;SDS011;31270;48.328;10.096;2022-07-06T14:10:55;3.72;;;2.35;;
45548;SDS011;31270;48.328;10.096;2022-07-06T14:13:22;2.60;;;2.40;;
45548;SDS011;31270;48.328;10.096;2022-07-06T14:15:48;3.95;;;2.13;;
45548;SDS011;31270;48.328;10.096;2022-07-06T14:18:14;3.08;;;2.33;;
45548;SDS011;31270;48.328;10.096;2022-07-06T14:20:42;5.35;;;2.30;;
45548;SDS011;31270;48.328;10.096;2022-07-06T14:23:09;5.45;;;2.60;;
45548;SDS011;31270;48.328;10.096;2022-07-06T14:25:36;3.72;;;2.33;;
45548;SDS011;31270;48.328;10.096;2022-07-06T14:28:02;2.65;;;2.45;;
45548;SDS011;31270;48.328;10.096;2022-07-06T14:30:27;3.08;;;2.60;;
45548;SDS011;31270;48.328;10.096;2022-07-06T14:32:53;3.45;;;2.40;;
45548;SDS011;31270;48.328;10.096;2022-07-06T14:35:19;2.83;;;2.50;;
45548;SDS011;31270;48.328;10.096;2022-07-06T14:37:45;33.40;;;4.55;;
45548;SDS011;31270;48.328;10.096;2022-07-06T14:40:12;3.03;;;2.70;;
45548;SDS011;31270;48.328;10.096;2022-07-06T14:42:37;3.72;;;2.55;;
45548;SDS011;31270;48.328;10.096;2022-07-06T14:45:03;4.07;;;2.47;;
45548;SDS011;31270;48.328;10.096;2022-07-06T14:47:30;2.70;;;2.50;;
45548;SDS011;31270;48.328;10.096;2022-07-06T14:49:55;3.55;;;2.90;;
45548;SDS011;31270;48.328;10.096;2022-07-06T14:52:21;5.03;;;2.67;;
45548;SDS011;31270;48.328;10.096;2022-07-06T14:54:46;5.55;;;3.10;;
45548;SDS011;31270;48.328;10.096;2022-07-06T14:57:12;2.85;;;2.65;;
45548;SDS011;31270;48.328;10.096;2022-07-06T14:59:37;5.85;;;2.80;;
45548;SDS011;31270;48.328;10.096;2022-07-06T15:02:03;15.55;;;3.10;;
45548;SDS011;31270;48.328;10.096;2022-07-06T15:04:29;3.60;;;2.40;;
45548;SDS011;31270;48.328;10.096;2022-07-06T15:06:55;4.70;;;2.60;;
45548;SDS011;31270;48.328;10.096;2022-07-06T15:09:20;3.70;;;2.70;;